sensor_id;sensor_type;location;lat;lon;timestamp;temperature;humidity
8643;DHT22;4359;49.358;11.256;2023-07-31T00:00:14;12.40;99.90
8643;DHT22;4359;49.358;11.256;2023-07-31T00:02:41;12.40;99.90
8643;DHT22;4359;49.358;11.256;2023-07-31T00:05:08;12.40;99.90
8643;DHT22;4359;49.358;11.256;2023-07-31T00:07:34;12.30;99.90
8643;DHT22;4359;49.358;11.256;2023-07-31T00:10:00;12.40;99.90
8643;DHT22;4359;49.358;11.256;2023-07-31T00:12:25;12.40;99.90
8643;DHT22;4359;49.358;11.256;2023-07-31T00:14:51;12.40;99.90
8643;DHT22;4359;49.358;11.256;2023-07-31T00:17:17;12.40;99.90
8643;DHT22;4359;49.358;11.256;2023-07-31T00:19:43;12.50;99.90
8643;DHT22;4359;49.358;11.256;2023-07-31T00:22:11;12.40;99.90
8643;DHT22;4359;49.358;11.256;2023-07-31T00:24:37;12.40;99.90
8643;DHT22;4359;49.358;11.256;2023-07-31T00:27:03;12.30;99.90
8643;DHT22;4359;49.358;11.256;2023-07-31T00:29:28;12.30;99.90
8643;DHT22;4359;49.358;11.256;2023-07-31T00:31:54;12.20;99.90
8643;DHT22;4359;49.358;11.256;2023-07-31T00:34:19;12.20;99.90
8643;DHT22;4359;49.358;11.256;2023-07-31T00:36:45;12.20;99.90
8643;DHT22;4359;49.358;11.256;2023-07-31T00:39:11;12.20;99.90
8643;DHT22;4359;49.358;11.256;2023-07-31T00:41:36;12.10;99.90
8643;DHT22;4359;49.358;11.256;2023-07-31T00:44:02;12.10;99.90
8643;DHT22;4359;49.358;11.256;2023-07-31T00:46:27;12.10;99.90
8643;DHT22;4359;49.358;11.256;2023-07-31T00:48:53;12.10;99.90
8643;DHT22;4359;49.358;11.256;2023-07-31T00:51:19;12.10;99.90
8643;DHT22;4359;49.358;11.256;2023-07-31T00:53:45;12.10;99.90
8643;DHT22;4359;49.358;11.256;2023-07-31T00:56:12;12.10;99.90
8643;DHT22;4359;49.358;11.256;2023-07-31T00:58:39;12.00;99.90
8643;DHT22;4359;49.358;11.256;2023-07-31T01:01:05;11.90;99.90
8643;DHT22;4359;49.358;11.256;2023-07-31T01:03:30;11.90;99.90
8643;DHT22;4359;49.358;11.256;2023-07-31T01:06:26;11.80;99.90
8643;DHT22;4359;49.358;11.256;2023-07-31T01:09:29;11.80;99.90
8643;DHT22;4359;49.358;11.256;2023-07-31T01:11:54;11.80;99.90
8643;DHT22;4359;49.358;11.256;2023-07-31T01:14:21;11.90;99.90
8643;DHT22;4359;49.358;11.256;2023-07-31T01:16:47;11.90;99.90
8643;DHT22;4359;49.358;11.256;2023-07-31T01:19:15;12.00;99.90
8643;DHT22;4359;49.358;11.256;2023-07-31T01:24:41;12.00;99.90
8643;DHT22;4359;49.358;11.256;2023-07-31T01:27:16;12.00;99.90
8643;DHT22;4359;49.358;11.256;2023-07-31T01:32:18;11.90;99.90
8643;DHT22;4359;49.358;11.256;2023-07-31T01:34:45;11.90;99.90
8643;DHT22;4359;49.358;11.256;2023-07-31T01:37:12;11.90;99.90
8643;DHT22;4359;49.358;11.256;2023-07-31T01:39:37;11.90;99.90
8643;DHT22;4359;49.358;11.256;2023-07-31T01:42:03;11.90;99.90
8643;DHT22;4359;49.358;11.256;2023-07-31T01:44:29;11.90;99.90
8643;DHT22;4359;49.358;11.256;2023-07-31T01:46:55;11.90;99.90
8643;DHT22;4359;49.358;11.256;2023-07-31T01:49:20;12.00;99.90
8643;DHT22;4359;49.358;11.256;2023-07-31T01:51:46;12.00;99.90
8643;DHT22;4359;49.358;11.256;2023-07-31T01:54:12;12.10;99.90
8643;DHT22;4359;49.358;11.256;2023-07-31T01:56:37;12.10;99.90
8643;DHT22;4359;49.358;11.256;2023-07-31T01:59:03;12.10;99.90
8643;DHT22;4359;49.358;11.256;2023-07-31T02:01:28;12.20;99.90
8643;DHT22;4359;49.358;11.256;2023-07-31T02:03:54;12.20;99.90
8643;DHT22;4359;49.358;11.256;2023-07-31T02:06:20;12.30;99.90
8643;DHT22;4359;49.358;11.256;2023-07-31T02:08:45;12.30;99.90
8643;DHT22;4359;49.358;11.256;2023-07-31T02:11:11;12.30;99.90
8643;DHT22;4359;49.358;11.256;2023-07-31T02:13:37;12.40;99.90
8643;DHT22;4359;49.358;11.256;2023-07-31T02:16:02;12.40;99.90
8643;DHT22;4359;49.358;11.256;2023-07-31T02:18:28;12.50;99.90
8643;DHT22;4359;49.358;11.256;2023-07-31T02:20:54;12.50;99.90
8643;DHT22;4359;49.358;11.256;2023-07-31T02:23:19;12.50;99.90
8643;DHT22;4359;49.358;11.256;2023-07-31T02:25:45;12.60;99.90
8643;DHT22;4359;49.358;11.256;2023-07-31T02:28:11;12.60;99.90
8643;DHT22;4359;49.358;11.256;2023-07-31T02:30:43;12.70;99.90
8643;DHT22;4359;49.358;11.256;2023-07-31T02:33:26;12.80;99.90
8643;DHT22;4359;49.358;11.256;2023-07-31T02:35:51;12.80;99.90
8643;DHT22;4359;49.358;11.256;2023-07-31T02:38:17;12.90;99.90
8643;DHT22;4359;49.358;11.256;2023-07-31T02:40:42;12.90;99.90
8643;DHT22;4359;49.358;11.256;2023-07-31T02:43:08;13.00;99.90
8643;DHT22;4359;49.358;11.256;2023-07-31T02:45:34;13.00;99.90
8643;DHT22;4359;49.358;11.256;2023-07-31T02:48:00;13.00;99.90
8643;DHT22;4359;49.358;11.256;2023-07-31T02:50:26;13.10;99.90
8643;DHT22;4359;49.358;11.256;2023-07-31T02:52:53;13.10;99.90
8643;DHT22;4359;49.358;11.256;2023-07-31T02:55:18;13.10;99.90
8643;DHT22;4359;49.358;11.256;2023-07-31T02:57:44;13.10;99.90
8643;DHT22;4359;49.358;11.256;2023-07-31T03:00:10;13.20;99.90
8643;DHT22;4359;49.358;11.256;2023-07-31T03:02:36;13.20;99.90
8643;DHT22;4359;49.358;11.256;2023-07-31T03:05:02;13.20;99.90
8643;DHT22;4359;49.358;11.256;2023-07-31T03:07:27;13.20;99.90
8643;DHT22;4359;49.358;11.256;2023-07-31T03:09:54;13.30;99.90
8643;DHT22;4359;49.358;11.256;2023-07-31T03:12:19;13.30;99.90
8643;DHT22;4359;49.358;11.256;2023-07-31T03:14:45;13.30;99.90
8643;DHT22;4359;49.358;11.256;2023-07-31T03:17:11;13.30;99.90
8643;DHT22;4359;49.358;11.256;2023-07-31T03:19:36;13.40;99.90
8643;DHT22;4359;49.358;11.256;2023-07-31T03:22:02;13.40;99.90
8643;DHT22;4359;49.358;11.256;2023-07-31T03:24:28;13.50;99.90
8643;DHT22;4359;49.358;11.256;2023-07-31T03:26:54;13.50;99.90
8643;DHT22;4359;49.358;11.256;2023-07-31T03:29:20;13.50;99.90
8643;DHT22;4359;49.358;11.256;2023-07-31T03:31:46;13.50;99.90
8643;DHT22;4359;49.358;11.256;2023-07-31T03:34:11;13.60;99.90
8643;DHT22;4359;49.358;11.256;2023-07-31T03:36:37;13.60;99.90
8643;DHT22;4359;49.358;11.256;2023-07-31T03:39:03;13.70;99.90
8643;DHT22;4359;49.358;11.256;2023-07-31T03:41:28;13.70;99.90
8643;DHT22;4359;49.358;11.256;2023-07-31T03:43:54;13.80;99.90
8643;DHT22;4359;49.358;11.256;2023-07-31T03:46:26;13.80;99.90
8643;DHT22;4359;49.358;11.256;2023-07-31T03:48:52;13.80;99.90
8643;DHT22;4359;49.358;11.256;2023-07-31T03:51:18;13.90;99.90
8643;DHT22;4359;49.358;11.256;2023-07-31T03:53:44;13.90;99.90
8643;DHT22;4359;49.358;11.256;2023-07-31T03:56:10;13.90;99.90
8643;DHT22;4359;49.358;11.256;2023-07-31T03:58:36;14.00;99.90
8643;DHT22;4359;49.358;11.256;2023-07-31T04:01:03;14.10;99.90
8643;DHT22;4359;49.358;11.256;2023-07-31T04:03:29;14.10;99.90
8643;DHT22;4359;49.358;11.256;2023-07-31T04:05:55;14.10;99.90
8643;DHT22;4359;49.358;11.256;2023-07-31T04:08:24;14.10;99.90
8643;DHT22;4359;49.358;11.256;2023-07-31T04:10:49;14.10;99.90
8643;DHT22;4359;49.358;11.256;2023-07-31T04:13:16;14.10;99.90
8643;DHT22;4359;49.358;11.256;2023-07-31T04:15:41;14.20;99.90
8643;DHT22;4359;49.358;11.256;2023-07-31T04:18:07;14.20;99.90
8643;DHT22;4359;49.358;11.256;2023-07-31T04:20:33;14.20;99.90
8643;DHT22;4359;49.358;11.256;2023-07-31T04:22:59;14.30;99.90
8643;DHT22;4359;49.358;11.256;2023-07-31T04:25:25;14.30;99.90
8643;DHT22;4359;49.358;11.256;2023-07-31T04:27:50;14.30;99.90
8643;DHT22;4359;49.358;11.256;2023-07-31T04:30:16;14.40;99.90
8643;DHT22;4359;49.358;11.256;2023-07-31T04:32:42;14.40;99.90
8643;DHT22;4359;49.358;11.256;2023-07-31T04:35:07;14.40;99.90
8643;DHT22;4359;49.358;11.256;2023-07-31T04:37:33;14.50;99.90
8643;DHT22;4359;49.358;11.256;2023-07-31T04:39:59;14.50;99.90
8643;DHT22;4359;49.358;11.256;2023-07-31T04:42:24;14.60;99.90
8643;DHT22;4359;49.358;11.256;2023-07-31T04:44:50;14.50;99.90
8643;DHT22;4359;49.358;11.256;2023-07-31T04:47:16;14.60;99.90
8643;DHT22;4359;49.358;11.256;2023-07-31T04:49:41;14.70;99.90
8643;DHT22;4359;49.358;11.256;2023-07-31T04:52:07;14.80;99.90
8643;DHT22;4359;49.358;11.256;2023-07-31T04:54:33;14.80;99.90
8643;DHT22;4359;49.358;11.256;2023-07-31T04:56:58;14.90;99.90
8643;DHT22;4359;49.358;11.256;2023-07-31T04:59:24;14.90;99.90
8643;DHT22;4359;49.358;11.256;2023-07-31T05:01:49;15.00;99.90
8643;DHT22;4359;49.358;11.256;2023-07-31T05:04:15;15.00;99.90
8643;DHT22;4359;49.358;11.256;2023-07-31T05:06:41;15.00;99.90
8643;DHT22;4359;49.358;11.256;2023-07-31T05:09:07;15.10;99.90
8643;DHT22;4359;49.358;11.256;2023-07-31T05:11:34;15.20;99.90
8643;DHT22;4359;49.358;11.256;2023-07-31T05:14:00;15.30;99.90
8643;DHT22;4359;49.358;11.256;2023-07-31T05:16:26;15.50;99.90
8643;DHT22;4359;49.358;11.256;2023-07-31T05:18:51;15.60;99.90
8643;DHT22;4359;49.358;11.256;2023-07-31T05:21:17;15.70;99.90
8643;DHT22;4359;49.358;11.256;2023-07-31T05:23:42;15.80;99.90
8643;DHT22;4359;49.358;11.256;2023-07-31T05:26:09;15.90;99.90
8643;DHT22;4359;49.358;11.256;2023-07-31T05:28:36;15.90;99.90
8643;DHT22;4359;49.358;11.256;2023-07-31T05:31:03;15.90;99.90
8643;DHT22;4359;49.358;11.256;2023-07-31T05:33:28;15.90;99.90
8643;DHT22;4359;49.358;11.256;2023-07-31T05:35:54;15.80;99.90
8643;DHT22;4359;49.358;11.256;2023-07-31T05:38:20;15.80;99.90
8643;DHT22;4359;49.358;11.256;2023-07-31T05:40:47;15.90;99.90
8643;DHT22;4359;49.358;11.256;2023-07-31T05:43:12;16.00;99.90
8643;DHT22;4359;49.358;11.256;2023-07-31T05:45:38;16.00;99.90
8643;DHT22;4359;49.358;11.256;2023-07-31T05:48:05;16.00;99.90
8643;DHT22;4359;49.358;11.256;2023-07-31T05:50:31;16.10;99.90
8643;DHT22;4359;49.358;11.256;2023-07-31T05:52:57;16.20;99.90
8643;DHT22;4359;49.358;11.256;2023-07-31T05:55:23;16.30;99.90
8643;DHT22;4359;49.358;11.256;2023-07-31T05:57:52;16.50;99.90
8643;DHT22;4359;49.358;11.256;2023-07-31T06:00:18;16.60;99.90
8643;DHT22;4359;49.358;11.256;2023-07-31T06:02:44;16.60;99.90
8643;DHT22;4359;49.358;11.256;2023-07-31T06:05:12;16.80;99.90
8643;DHT22;4359;49.358;11.256;2023-07-31T06:07:38;17.00;99.90
8643;DHT22;4359;49.358;11.256;2023-07-31T06:10:04;17.10;99.90
8643;DHT22;4359;49.358;11.256;2023-07-31T06:12:34;17.30;99.90
8643;DHT22;4359;49.358;11.256;2023-07-31T06:15:00;17.50;99.90
8643;DHT22;4359;49.358;11.256;2023-07-31T06:17:26;17.70;99.90
8643;DHT22;4359;49.358;11.256;2023-07-31T06:19:52;17.80;99.90
8643;DHT22;4359;49.358;11.256;2023-07-31T06:22:17;18.00;99.90
8643;DHT22;4359;49.358;11.256;2023-07-31T06:24:43;18.00;99.90
8643;DHT22;4359;49.358;11.256;2023-07-31T06:27:09;18.00;99.90
8643;DHT22;4359;49.358;11.256;2023-07-31T06:29:35;18.10;99.90
8643;DHT22;4359;49.358;11.256;2023-07-31T06:32:01;18.20;99.90
8643;DHT22;4359;49.358;11.256;2023-07-31T06:34:26;18.40;99.90
8643;DHT22;4359;49.358;11.256;2023-07-31T06:36:52;18.50;99.90
8643;DHT22;4359;49.358;11.256;2023-07-31T06:39:17;18.50;99.90
8643;DHT22;4359;49.358;11.256;2023-07-31T06:41:44;18.70;99.90
8643;DHT22;4359;49.358;11.256;2023-07-31T06:44:10;18.60;99.90
8643;DHT22;4359;49.358;11.256;2023-07-31T06:46:36;18.70;99.90
8643;DHT22;4359;49.358;11.256;2023-07-31T06:49:02;19.00;99.90
8643;DHT22;4359;49.358;11.256;2023-07-31T06:51:27;19.00;99.90
8643;DHT22;4359;49.358;11.256;2023-07-31T06:53:53;19.10;99.90
8643;DHT22;4359;49.358;11.256;2023-07-31T06:56:20;19.00;99.90
8643;DHT22;4359;49.358;11.256;2023-07-31T06:58:46;19.00;99.90
8643;DHT22;4359;49.358;11.256;2023-07-31T07:01:12;19.20;99.90
8643;DHT22;4359;49.358;11.256;2023-07-31T07:03:37;19.30;99.90
8643;DHT22;4359;49.358;11.256;2023-07-31T07:06:03;19.50;99.90
8643;DHT22;4359;49.358;11.256;2023-07-31T07:08:28;19.70;99.90
8643;DHT22;4359;49.358;11.256;2023-07-31T07:10:54;20.00;99.90
8643;DHT22;4359;49.358;11.256;2023-07-31T07:13:21;20.30;99.90
8643;DHT22;4359;49.358;11.256;2023-07-31T07:15:50;20.20;99.90
8643;DHT22;4359;49.358;11.256;2023-07-31T07:18:17;20.40;99.90
8643;DHT22;4359;49.358;11.256;2023-07-31T07:20:50;20.90;99.90
8643;DHT22;4359;49.358;11.256;2023-07-31T07:23:16;20.80;99.90
8643;DHT22;4359;49.358;11.256;2023-07-31T07:25:42;20.80;99.90
8643;DHT22;4359;49.358;11.256;2023-07-31T07:28:08;20.90;99.90
8643;DHT22;4359;49.358;11.256;2023-07-31T07:30:34;20.90;99.90
8643;DHT22;4359;49.358;11.256;2023-07-31T07:33:00;21.10;99.90
8643;DHT22;4359;49.358;11.256;2023-07-31T07:35:26;21.50;99.90
8643;DHT22;4359;49.358;11.256;2023-07-31T07:37:51;21.70;99.90
8643;DHT22;4359;49.358;11.256;2023-07-31T07:40:17;21.90;99.90
8643;DHT22;4359;49.358;11.256;2023-07-31T07:42:43;22.00;99.90
8643;DHT22;4359;49.358;11.256;2023-07-31T07:45:09;22.00;99.90
8643;DHT22;4359;49.358;11.256;2023-07-31T07:47:34;21.80;99.90
8643;DHT22;4359;49.358;11.256;2023-07-31T07:50:00;21.80;99.90
8643;DHT22;4359;49.358;11.256;2023-07-31T07:52:26;21.90;99.90
8643;DHT22;4359;49.358;11.256;2023-07-31T07:54:51;22.00;99.90
8643;DHT22;4359;49.358;11.256;2023-07-31T07:57:17;22.10;99.90
8643;DHT22;4359;49.358;11.256;2023-07-31T07:59:44;21.80;99.90
8643;DHT22;4359;49.358;11.256;2023-07-31T08:02:09;21.70;99.90
8643;DHT22;4359;49.358;11.256;2023-07-31T08:04:35;21.50;99.90
8643;DHT22;4359;49.358;11.256;2023-07-31T08:07:00;21.10;99.90
8643;DHT22;4359;49.358;11.256;2023-07-31T08:09:26;21.00;99.90
8643;DHT22;4359;49.358;11.256;2023-07-31T08:11:52;21.00;99.90
8643;DHT22;4359;49.358;11.256;2023-07-31T08:14:17;21.00;99.90
8643;DHT22;4359;49.358;11.256;2023-07-31T08:16:43;21.30;99.90
8643;DHT22;4359;49.358;11.256;2023-07-31T08:19:09;21.70;99.90
8643;DHT22;4359;49.358;11.256;2023-07-31T08:21:35;22.20;99.90
8643;DHT22;4359;49.358;11.256;2023-07-31T08:24:00;22.80;99.90
8643;DHT22;4359;49.358;11.256;2023-07-31T08:26:26;22.90;99.90
8643;DHT22;4359;49.358;11.256;2023-07-31T08:28:52;23.00;99.90
8643;DHT22;4359;49.358;11.256;2023-07-31T08:31:17;23.10;99.90
8643;DHT22;4359;49.358;11.256;2023-07-31T08:33:43;22.80;99.90
8643;DHT22;4359;49.358;11.256;2023-07-31T08:36:09;22.40;99.90
8643;DHT22;4359;49.358;11.256;2023-07-31T08:38:35;22.60;99.90
8643;DHT22;4359;49.358;11.256;2023-07-31T08:41:02;22.70;99.90
8643;DHT22;4359;49.358;11.256;2023-07-31T08:43:28;22.50;99.90
8643;DHT22;4359;49.358;11.256;2023-07-31T08:45:54;22.80;99.90
8643;DHT22;4359;49.358;11.256;2023-07-31T08:48:22;22.80;99.90
8643;DHT22;4359;49.358;11.256;2023-07-31T08:50:48;23.00;99.90
8643;DHT22;4359;49.358;11.256;2023-07-31T08:53:14;22.90;99.90
8643;DHT22;4359;49.358;11.256;2023-07-31T08:55:40;23.10;99.90
8643;DHT22;4359;49.358;11.256;2023-07-31T08:58:06;23.40;99.90
8643;DHT22;4359;49.358;11.256;2023-07-31T09:00:32;23.50;99.90
8643;DHT22;4359;49.358;11.256;2023-07-31T09:03:03;23.40;99.90
8643;DHT22;4359;49.358;11.256;2023-07-31T09:05:31;23.10;99.90
8643;DHT22;4359;49.358;11.256;2023-07-31T09:07:57;22.90;99.90
8643;DHT22;4359;49.358;11.256;2023-07-31T09:10:23;22.70;99.90
8643;DHT22;4359;49.358;11.256;2023-07-31T09:12:51;22.70;99.90
8643;DHT22;4359;49.358;11.256;2023-07-31T09:15:17;22.70;99.90
8643;DHT22;4359;49.358;11.256;2023-07-31T09:17:43;22.40;99.90
8643;DHT22;4359;49.358;11.256;2023-07-31T09:20:19;22.60;99.90
8643;DHT22;4359;49.358;11.256;2023-07-31T09:22:46;23.20;99.90
8643;DHT22;4359;49.358;11.256;2023-07-31T09:25:24;23.90;99.90
8643;DHT22;4359;49.358;11.256;2023-07-31T09:28:01;24.20;99.90
8643;DHT22;4359;49.358;11.256;2023-07-31T09:30:27;24.00;99.90
8643;DHT22;4359;49.358;11.256;2023-07-31T09:33:06;24.00;99.90
8643;DHT22;4359;49.358;11.256;2023-07-31T09:35:33;24.10;99.90
8643;DHT22;4359;49.358;11.256;2023-07-31T09:38:01;24.10;99.90
8643;DHT22;4359;49.358;11.256;2023-07-31T09:40:36;23.90;99.90
8643;DHT22;4359;49.358;11.256;2023-07-31T09:43:04;24.30;99.90
8643;DHT22;4359;49.358;11.256;2023-07-31T09:45:32;23.80;99.90
8643;DHT22;4359;49.358;11.256;2023-07-31T09:47:58;23.90;99.90
8643;DHT22;4359;49.358;11.256;2023-07-31T09:50:24;23.90;99.90
8643;DHT22;4359;49.358;11.256;2023-07-31T09:52:51;24.30;99.90
8643;DHT22;4359;49.358;11.256;2023-07-31T09:55:17;24.60;99.90
8643;DHT22;4359;49.358;11.256;2023-07-31T09:57:48;24.70;99.90
8643;DHT22;4359;49.358;11.256;2023-07-31T10:00:16;25.30;99.90
8643;DHT22;4359;49.358;11.256;2023-07-31T10:02:46;24.80;99.90
8643;DHT22;4359;49.358;11.256;2023-07-31T10:05:14;24.30;99.90
8643;DHT22;4359;49.358;11.256;2023-07-31T10:07:45;24.10;99.90
8643;DHT22;4359;49.358;11.256;2023-07-31T10:10:11;23.90;99.90
8643;DHT22;4359;49.358;11.256;2023-07-31T10:12:39;23.90;99.90
8643;DHT22;4359;49.358;11.256;2023-07-31T10:15:05;23.60;99.90
8643;DHT22;4359;49.358;11.256;2023-07-31T10:17:32;23.90;99.90
8643;DHT22;4359;49.358;11.256;2023-07-31T10:19:59;24.00;99.90
8643;DHT22;4359;49.358;11.256;2023-07-31T10:22:26;24.10;99.90
8643;DHT22;4359;49.358;11.256;2023-07-31T10:24:52;24.30;99.90
8643;DHT22;4359;49.358;11.256;2023-07-31T10:27:19;24.00;99.90
8643;DHT22;4359;49.358;11.256;2023-07-31T10:29:46;23.70;99.90
8643;DHT22;4359;49.358;11.256;2023-07-31T10:32:14;23.10;99.90
8643;DHT22;4359;49.358;11.256;2023-07-31T10:34:41;22.60;99.90
8643;DHT22;4359;49.358;11.256;2023-07-31T10:37:39;22.40;99.90
8643;DHT22;4359;49.358;11.256;2023-07-31T10:40:06;23.00;99.90
8643;DHT22;4359;49.358;11.256;2023-07-31T10:42:34;24.20;99.90
8643;DHT22;4359;49.358;11.256;2023-07-31T10:45:04;24.80;99.90
8643;DHT22;4359;49.358;11.256;2023-07-31T10:47:30;24.70;99.90
8643;DHT22;4359;49.358;11.256;2023-07-31T10:50:17;24.60;99.90
8643;DHT22;4359;49.358;11.256;2023-07-31T10:52:53;24.30;99.90
8643;DHT22;4359;49.358;11.256;2023-07-31T10:58:05;24.20;99.90
8643;DHT22;4359;49.358;11.256;2023-07-31T11:00:31;23.80;99.90
8643;DHT22;4359;49.358;11.256;2023-07-31T11:03:13;23.80;99.90
8643;DHT22;4359;49.358;11.256;2023-07-31T11:05:51;24.10;99.90
8643;DHT22;4359;49.358;11.256;2023-07-31T11:08:20;24.40;99.90
8643;DHT22;4359;49.358;11.256;2023-07-31T11:10:47;24.20;99.90
8643;DHT22;4359;49.358;11.256;2023-07-31T11:13:13;24.20;99.90
8643;DHT22;4359;49.358;11.256;2023-07-31T11:15:39;24.20;99.90
8643;DHT22;4359;49.358;11.256;2023-07-31T11:18:05;24.60;99.90
8643;DHT22;4359;49.358;11.256;2023-07-31T11:20:32;24.70;99.90
8643;DHT22;4359;49.358;11.256;2023-07-31T11:23:02;24.50;99.90
8643;DHT22;4359;49.358;11.256;2023-07-31T11:25:31;24.20;99.90
8643;DHT22;4359;49.358;11.256;2023-07-31T11:28:09;24.10;99.90
8643;DHT22;4359;49.358;11.256;2023-07-31T11:30:35;23.90;99.90
8643;DHT22;4359;49.358;11.256;2023-07-31T11:33:05;23.30;99.90
8643;DHT22;4359;49.358;11.256;2023-07-31T11:35:36;23.20;99.90
8643;DHT22;4359;49.358;11.256;2023-07-31T11:38:02;23.10;99.90
8643;DHT22;4359;49.358;11.256;2023-07-31T11:40:28;23.20;99.90
8643;DHT22;4359;49.358;11.256;2023-07-31T11:42:58;23.30;99.90
8643;DHT22;4359;49.358;11.256;2023-07-31T11:45:30;23.40;99.90
8643;DHT22;4359;49.358;11.256;2023-07-31T11:47:56;23.60;99.90
8643;DHT22;4359;49.358;11.256;2023-07-31T11:50:23;23.10;99.90
8643;DHT22;4359;49.358;11.256;2023-07-31T11:52:53;23.10;99.90
8643;DHT22;4359;49.358;11.256;2023-07-31T11:55:20;23.00;99.90
8643;DHT22;4359;49.358;11.256;2023-07-31T11:57:46;23.00;99.90
8643;DHT22;4359;49.358;11.256;2023-07-31T12:00:13;23.20;99.90
8643;DHT22;4359;49.358;11.256;2023-07-31T12:02:40;23.60;99.90
8643;DHT22;4359;49.358;11.256;2023-07-31T12:05:11;23.90;99.90
8643;DHT22;4359;49.358;11.256;2023-07-31T12:07:44;24.10;99.90
8643;DHT22;4359;49.358;11.256;2023-07-31T12:10:11;24.00;99.90
8643;DHT22;4359;49.358;11.256;2023-07-31T12:12:37;23.40;99.90
8643;DHT22;4359;49.358;11.256;2023-07-31T12:15:02;23.40;99.90
8643;DHT22;4359;49.358;11.256;2023-07-31T12:17:38;23.30;99.90
8643;DHT22;4359;49.358;11.256;2023-07-31T12:20:04;23.20;99.90
8643;DHT22;4359;49.358;11.256;2023-07-31T12:22:30;23.00;99.90
8643;DHT22;4359;49.358;11.256;2023-07-31T12:24:56;23.10;99.90
8643;DHT22;4359;49.358;11.256;2023-07-31T12:27:22;23.30;99.90
8643;DHT22;4359;49.358;11.256;2023-07-31T12:29:50;23.60;99.90
8643;DHT22;4359;49.358;11.256;2023-07-31T12:32:20;23.90;99.90
8643;DHT22;4359;49.358;11.256;2023-07-31T12:34:46;24.00;99.90
8643;DHT22;4359;49.358;11.256;2023-07-31T12:37:12;23.80;99.90
8643;DHT22;4359;49.358;11.256;2023-07-31T12:39:37;23.60;99.90
8643;DHT22;4359;49.358;11.256;2023-07-31T12:42:03;23.50;99.90
8643;DHT22;4359;49.358;11.256;2023-07-31T12:44:29;23.50;99.90
8643;DHT22;4359;49.358;11.256;2023-07-31T12:46:54;24.10;99.90
8643;DHT22;4359;49.358;11.256;2023-07-31T12:49:20;25.20;99.90
8643;DHT22;4359;49.358;11.256;2023-07-31T12:51:46;25.70;99.90
8643;DHT22;4359;49.358;11.256;2023-07-31T12:54:12;26.30;99.90
8643;DHT22;4359;49.358;11.256;2023-07-31T12:56:38;26.50;99.90
8643;DHT22;4359;49.358;11.256;2023-07-31T12:59:03;26.30;99.90
8643;DHT22;4359;49.358;11.256;2023-07-31T13:01:29;26.10;99.90
8643;DHT22;4359;49.358;11.256;2023-07-31T13:03:55;25.90;99.90
8643;DHT22;4359;49.358;11.256;2023-07-31T13:06:21;25.40;99.90
8643;DHT22;4359;49.358;11.256;2023-07-31T13:08:46;24.70;99.90
8643;DHT22;4359;49.358;11.256;2023-07-31T13:11:12;24.40;99.90
8643;DHT22;4359;49.358;11.256;2023-07-31T13:13:38;23.90;99.90
8643;DHT22;4359;49.358;11.256;2023-07-31T13:16:03;24.00;99.90
8643;DHT22;4359;49.358;11.256;2023-07-31T13:18:29;24.10;99.90
8643;DHT22;4359;49.358;11.256;2023-07-31T13:20:55;24.40;99.90
8643;DHT22;4359;49.358;11.256;2023-07-31T13:23:20;24.60;99.90
8643;DHT22;4359;49.358;11.256;2023-07-31T13:25:46;24.80;99.90
8643;DHT22;4359;49.358;11.256;2023-07-31T13:28:12;25.00;99.90
8643;DHT22;4359;49.358;11.256;2023-07-31T13:30:38;25.10;99.90
8643;DHT22;4359;49.358;11.256;2023-07-31T13:33:03;25.20;99.90
8643;DHT22;4359;49.358;11.256;2023-07-31T13:35:29;25.40;99.90
8643;DHT22;4359;49.358;11.256;2023-07-31T13:37:56;25.50;99.90
8643;DHT22;4359;49.358;11.256;2023-07-31T13:40:22;25.70;99.90
8643;DHT22;4359;49.358;11.256;2023-07-31T13:42:48;25.50;99.90
8643;DHT22;4359;49.358;11.256;2023-07-31T13:45:14;25.90;99.90
8643;DHT22;4359;49.358;11.256;2023-07-31T13:47:39;25.70;99.90
8643;DHT22;4359;49.358;11.256;2023-07-31T13:50:05;25.60;99.90
8643;DHT22;4359;49.358;11.256;2023-07-31T13:52:31;25.60;99.90
8643;DHT22;4359;49.358;11.256;2023-07-31T13:54:57;25.40;99.90
8643;DHT22;4359;49.358;11.256;2023-07-31T13:57:23;25.40;99.90
8643;DHT22;4359;49.358;11.256;2023-07-31T13:59:48;25.30;99.90
8643;DHT22;4359;49.358;11.256;2023-07-31T14:02:14;25.20;99.90
8643;DHT22;4359;49.358;11.256;2023-07-31T14:04:40;25.20;99.90
8643;DHT22;4359;49.358;11.256;2023-07-31T14:07:06;25.00;99.90
8643;DHT22;4359;49.358;11.256;2023-07-31T14:09:32;24.70;99.90
8643;DHT22;4359;49.358;11.256;2023-07-31T14:11:58;24.50;99.90
8643;DHT22;4359;49.358;11.256;2023-07-31T14:14:23;24.40;99.90
8643;DHT22;4359;49.358;11.256;2023-07-31T14:16:49;24.00;99.90
8643;DHT22;4359;49.358;11.256;2023-07-31T14:19:14;24.00;99.90
8643;DHT22;4359;49.358;11.256;2023-07-31T14:21:40;24.20;99.90
8643;DHT22;4359;49.358;11.256;2023-07-31T14:24:06;24.70;99.90
8643;DHT22;4359;49.358;11.256;2023-07-31T14:26:31;25.10;99.90
8643;DHT22;4359;49.358;11.256;2023-07-31T14:28:57;25.30;99.90
8643;DHT22;4359;49.358;11.256;2023-07-31T14:31:23;25.60;99.90
8643;DHT22;4359;49.358;11.256;2023-07-31T14:33:48;25.40;99.90
8643;DHT22;4359;49.358;11.256;2023-07-31T14:36:14;25.00;99.90
8643;DHT22;4359;49.358;11.256;2023-07-31T14:38:40;24.70;99.90
8643;DHT22;4359;49.358;11.256;2023-07-31T14:41:05;24.20;99.90
8643;DHT22;4359;49.358;11.256;2023-07-31T14:43:31;24.00;99.90
8643;DHT22;4359;49.358;11.256;2023-07-31T14:45:57;23.80;99.90
8643;DHT22;4359;49.358;11.256;2023-07-31T14:48:25;23.70;99.90
8643;DHT22;4359;49.358;11.256;2023-07-31T14:50:51;23.80;99.90
8643;DHT22;4359;49.358;11.256;2023-07-31T14:53:17;23.90;99.90
8643;DHT22;4359;49.358;11.256;2023-07-31T14:55:42;24.00;99.90
8643;DHT22;4359;49.358;11.256;2023-07-31T14:58:08;24.00;99.90
8643;DHT22;4359;49.358;11.256;2023-07-31T15:00:36;23.90;99.90
8643;DHT22;4359;49.358;11.256;2023-07-31T15:03:02;23.70;99.90
8643;DHT22;4359;49.358;11.256;2023-07-31T15:05:31;23.50;99.90
8643;DHT22;4359;49.358;11.256;2023-07-31T15:07:56;23.50;99.90
8643;DHT22;4359;49.358;11.256;2023-07-31T15:10:22;23.40;99.90
8643;DHT22;4359;49.358;11.256;2023-07-31T15:12:48;23.40;99.90
8643;DHT22;4359;49.358;11.256;2023-07-31T15:15:14;23.40;99.90
8643;DHT22;4359;49.358;11.256;2023-07-31T15:17:40;23.20;99.90
8643;DHT22;4359;49.358;11.256;2023-07-31T15:20:06;23.10;99.90
8643;DHT22;4359;49.358;11.256;2023-07-31T15:22:32;23.10;99.90
8643;DHT22;4359;49.358;11.256;2023-07-31T15:24:58;23.10;99.90
8643;DHT22;4359;49.358;11.256;2023-07-31T15:27:23;23.00;99.90
8643;DHT22;4359;49.358;11.256;2023-07-31T15:29:50;22.80;99.90
8643;DHT22;4359;49.358;11.256;2023-07-31T15:32:18;22.70;99.90
8643;DHT22;4359;49.358;11.256;2023-07-31T15:34:44;22.60;99.90
8643;DHT22;4359;49.358;11.256;2023-07-31T15:37:10;22.50;99.90
8643;DHT22;4359;49.358;11.256;2023-07-31T15:39:35;22.60;99.90
8643;DHT22;4359;49.358;11.256;2023-07-31T15:42:01;22.60;99.90
8643;DHT22;4359;49.358;11.256;2023-07-31T15:44:27;22.60;99.90
8643;DHT22;4359;49.358;11.256;2023-07-31T15:46:53;22.50;99.90
8643;DHT22;4359;49.358;11.256;2023-07-31T15:49:18;22.50;99.90